createdAt,value
2023-03-23T00:03:19.828Z,470.00
2023-03-23T00:04:19.885Z,469.00
2023-03-23T00:05:19.961Z,470.00
2023-03-23T00:06:20.022Z,471.00
2023-03-23T00:07:20.034Z,470.00
2023-03-23T00:08:20.071Z,470.00
2023-03-23T00:09:20.142Z,469.00
2023-03-23T00:10:20.167Z,468.00
2023-03-23T00:11:20.230Z,466.00
2023-03-23T00:12:20.266Z,465.00
2023-03-23T00:13:21.258Z,464.00
2023-03-23T00:21:20.195Z,471.00
2023-03-23T00:23:20.153Z,471.00
2023-03-23T00:27:20.320Z,470.00
2023-03-23T00:28:20.317Z,473.00
2023-03-23T00:29:20.396Z,472.00
2023-03-23T00:30:20.429Z,472.00
2023-03-23T00:31:20.483Z,473.00
2023-03-23T00:32:20.552Z,475.00
2023-03-23T00:33:20.586Z,474.00
2023-03-23T00:34:20.655Z,472.00
2023-03-23T00:35:20.704Z,473.00
2023-03-23T00:36:20.729Z,472.00
2023-03-23T00:37:20.803Z,471.00
2023-03-23T00:38:20.878Z,471.00
2023-03-23T00:39:20.922Z,470.00
2023-03-23T00:40:20.952Z,471.00
2023-03-23T00:41:21.016Z,472.00
2023-03-23T00:42:21.065Z,472.00
2023-03-23T00:43:21.136Z,470.00
2023-03-23T00:44:22.756Z,470.00
2023-03-23T00:45:21.220Z,469.00
2023-03-23T00:46:21.281Z,468.00
2023-03-23T00:47:21.303Z,467.00
2023-03-23T00:48:21.400Z,465.00
2023-03-23T00:49:21.407Z,466.00
2023-03-23T00:50:29.426Z,468.00
2023-03-23T00:51:22.437Z,468.00
2023-03-23T01:00:21.367Z,467.00
2023-03-23T01:04:21.369Z,463.00
2023-03-23T01:11:21.593Z,465.00
2023-03-23T01:13:21.571Z,463.00
2023-03-23T01:14:21.622Z,459.00
2023-03-23T01:15:21.676Z,459.00
2023-03-23T01:16:21.710Z,460.00
2023-03-23T01:17:21.743Z,460.00
2023-03-23T01:18:21.769Z,463.00
2023-03-23T01:19:22.790Z,460.00
2023-03-23T01:22:21.749Z,462.00
2023-03-23T01:30:21.705Z,467.00
2023-03-23T01:33:21.764Z,470.00
2023-03-23T01:43:22.045Z,459.00
2023-03-23T01:44:22.126Z,459.00
2023-03-23T01:45:22.119Z,458.00
2023-03-23T01:46:22.203Z,461.00
2023-03-23T01:47:22.202Z,463.00
2023-03-23T01:48:22.260Z,465.00
2023-03-23T01:49:22.323Z,463.00
2023-03-23T01:50:22.353Z,462.00
2023-03-23T01:51:26.228Z,463.00
2023-03-23T01:52:23.426Z,463.00
2023-03-23T01:54:22.368Z,462.00
2023-03-23T01:55:22.395Z,461.00
2023-03-23T01:59:22.337Z,467.00
2023-03-23T02:07:22.646Z,469.00
2023-03-23T02:08:22.746Z,469.00
2023-03-23T02:09:22.827Z,469.00
2023-03-23T02:12:22.776Z,464.00
2023-03-23T02:13:22.756Z,464.00
2023-03-23T02:19:22.719Z,461.00
2023-03-23T02:36:22.602Z,454.00
2023-03-23T02:40:22.586Z,458.00
2023-03-23T02:47:22.560Z,464.00
2023-03-23T02:52:22.501Z,467.00
2023-03-23T02:59:22.667Z,469.00
2023-03-23T03:00:22.671Z,471.00
2023-03-23T03:01:22.731Z,471.00
2023-03-23T03:02:22.808Z,468.00
2023-03-23T03:03:22.831Z,467.00
2023-03-23T03:04:22.874Z,466.00
2023-03-23T03:05:22.920Z,468.00
2023-03-23T03:06:22.957Z,469.00
2023-03-23T03:07:23.008Z,471.00
2023-03-23T03:08:23.041Z,472.00
2023-03-23T03:09:23.092Z,474.00
2023-03-23T03:10:23.129Z,473.00
2023-03-23T03:11:23.182Z,472.00
2023-03-23T03:12:23.235Z,470.00
2023-03-23T03:13:23.286Z,470.00
2023-03-23T03:14:23.345Z,470.00
2023-03-23T03:15:23.356Z,471.00
2023-03-23T03:16:23.389Z,471.00
2023-03-23T03:17:23.461Z,470.00
2023-03-23T03:18:23.532Z,469.00
2023-03-23T03:19:23.565Z,472.00
2023-03-23T03:20:23.604Z,471.00
2023-03-23T03:21:23.656Z,473.00
2023-03-23T03:22:23.723Z,475.00
2023-03-23T03:23:23.762Z,473.00
2023-03-23T03:24:23.816Z,474.00
2023-03-23T03:25:23.846Z,475.00
2023-03-23T03:26:23.904Z,474.00
2023-03-23T03:27:23.952Z,475.00
2023-03-23T03:28:23.992Z,474.00
2023-03-23T03:29:24.075Z,476.00
2023-03-23T03:30:24.104Z,478.00
2023-03-23T03:31:24.193Z,477.00
2023-03-23T03:32:24.240Z,475.00
2023-03-23T03:33:24.269Z,473.00
2023-03-23T03:34:24.366Z,472.00
2023-03-23T03:35:24.399Z,471.00
2023-03-23T03:36:24.411Z,472.00
2023-03-23T03:37:24.464Z,469.00
2023-03-23T03:38:24.548Z,469.00
2023-03-23T03:39:24.568Z,469.00
2023-03-23T03:40:24.613Z,470.00
2023-03-23T03:41:24.646Z,475.00
2023-03-23T03:42:24.707Z,475.00
2023-03-23T03:43:24.752Z,475.00
2023-03-23T03:44:24.797Z,474.00
2023-03-23T03:45:24.865Z,473.00
2023-03-23T03:46:24.908Z,473.00
2023-03-23T03:47:24.958Z,470.00
2023-03-23T03:48:24.995Z,470.00
2023-03-23T03:49:25.080Z,472.00
2023-03-23T03:51:27.079Z,472.00
2023-03-23T03:52:25.216Z,471.00
2023-03-23T03:53:28.873Z,470.00
2023-03-23T03:54:25.272Z,470.00
2023-03-23T03:55:25.261Z,471.00
2023-03-23T04:02:25.164Z,469.00
2023-03-23T04:03:25.158Z,472.00
2023-03-23T04:05:25.213Z,473.00
2023-03-23T04:11:32.742Z,473.00
2023-03-23T04:12:26.104Z,470.00
2023-03-23T04:14:25.112Z,473.00
2023-03-23T04:19:25.063Z,475.00
2023-03-23T04:20:32.281Z,476.00
2023-03-23T04:21:26.071Z,477.00
2023-03-23T04:22:25.044Z,478.00
2023-03-23T04:23:25.042Z,478.00
2023-03-23T04:24:56.340Z,477.00
2023-03-23T04:25:26.044Z,476.00
2023-03-23T04:28:25.029Z,477.00
2023-03-23T04:29:25.025Z,479.00
2023-03-23T04:34:24.995Z,478.00
2023-03-23T04:35:25.002Z,478.00
2023-03-23T04:36:24.985Z,477.00
2023-03-23T04:37:25.947Z,475.00
2023-03-23T04:41:24.931Z,468.00
2023-03-23T04:45:24.926Z,464.00
2023-03-23T04:51:24.890Z,471.00
2023-03-23T04:57:24.834Z,474.00
2023-03-23T04:58:24.840Z,473.00
2023-03-23T04:59:24.905Z,473.00
2023-03-23T05:00:24.904Z,472.00
2023-03-23T05:01:24.940Z,471.00
2023-03-23T05:02:24.969Z,470.00
2023-03-23T05:06:24.951Z,467.00
2023-03-23T05:10:24.933Z,463.00
2023-03-23T05:13:24.903Z,456.00
2023-03-23T05:14:24.909Z,459.00
2023-03-23T05:21:24.859Z,465.00
2023-03-23T05:25:24.852Z,467.00
2023-03-23T05:27:24.787Z,470.00
2023-03-23T05:28:24.836Z,469.00
2023-03-23T05:31:24.762Z,467.00
2023-03-23T05:32:24.794Z,468.00
2023-03-23T05:33:24.786Z,470.00
2023-03-23T05:34:24.755Z,474.00
2023-03-23T05:35:24.783Z,475.00
2023-03-23T05:41:24.729Z,478.00
2023-03-23T05:48:24.921Z,483.00
2023-03-23T05:49:24.946Z,483.00
2023-03-23T05:50:25.000Z,483.00
2023-03-23T05:51:24.999Z,481.00
2023-03-23T05:52:25.054Z,481.00
2023-03-23T05:53:25.106Z,480.00
2023-03-23T05:54:25.130Z,481.00
2023-03-23T05:55:25.122Z,481.00
2023-03-23T05:56:25.209Z,481.00
2023-03-23T05:57:25.169Z,480.00
2023-03-23T05:58:27.183Z,479.00
2023-03-23T05:59:25.195Z,479.00
2023-03-23T06:03:25.155Z,484.00
2023-03-23T06:04:25.166Z,483.00
2023-03-23T06:06:25.147Z,485.00
2023-03-23T06:07:25.146Z,487.00
2023-03-23T06:08:25.122Z,490.00
2023-03-23T06:09:25.145Z,488.00
2023-03-23T06:10:25.104Z,487.00
2023-03-23T06:11:25.086Z,487.00
2023-03-23T06:12:25.126Z,488.00
2023-03-23T06:13:25.105Z,484.00
2023-03-23T06:17:25.098Z,482.00
2023-03-23T06:19:25.032Z,487.00
2023-03-23T06:20:25.120Z,487.00
2023-03-23T06:22:25.047Z,485.00
2023-03-23T06:29:25.144Z,488.00
2023-03-23T06:30:25.673Z,490.00
2023-03-23T06:31:25.171Z,488.00
2023-03-23T06:32:25.231Z,490.00
2023-03-23T06:34:25.248Z,556.00
2023-03-23T06:35:25.659Z,516.00
2023-03-23T06:41:25.428Z,646.00
2023-03-23T06:42:25.457Z,664.00
2023-03-23T06:43:25.463Z,703.00
2023-03-23T06:44:25.503Z,701.00
2023-03-23T06:50:25.470Z,821.00
2023-03-23T06:51:25.464Z,845.00
2023-03-23T06:52:25.472Z,861.00
2023-03-23T06:56:25.424Z,857.00
2023-03-23T06:57:25.593Z,863.00
2023-03-23T06:58:25.420Z,860.00
2023-03-23T06:59:25.441Z,904.00
2023-03-23T07:02:25.416Z,945.00
2023-03-23T07:03:25.429Z,1025.00
2023-03-23T07:04:25.426Z,1057.00
2023-03-23T07:05:25.709Z,1059.00
2023-03-23T07:08:25.391Z,1065.00
2023-03-23T07:09:37.689Z,1092.00
2023-03-23T07:10:26.742Z,1084.00
2023-03-23T07:11:25.357Z,1230.00
2023-03-23T07:15:25.333Z,1061.00
2023-03-23T07:18:25.309Z,1030.00
2023-03-23T07:19:25.315Z,1298.00
2023-03-23T07:20:25.706Z,1167.00
2023-03-23T07:23:25.447Z,1151.00
2023-03-23T07:24:25.498Z,1194.00
2023-03-23T07:25:25.722Z,1062.00
2023-03-23T07:26:25.619Z,1005.00
2023-03-23T07:27:25.677Z,965.00
2023-03-23T07:28:25.756Z,956.00
2023-03-23T07:29:25.805Z,868.00
2023-03-23T07:30:25.924Z,966.00
2023-03-23T07:42:25.810Z,841.00
2023-03-23T07:43:25.753Z,919.00
2023-03-23T07:44:25.798Z,1186.00
2023-03-23T07:47:25.729Z,895.00
2023-03-23T07:48:26.721Z,1081.00
2023-03-23T07:49:25.733Z,906.00
2023-03-23T07:52:25.666Z,727.00
2023-03-23T07:53:25.704Z,754.00
2023-03-23T07:56:25.752Z,739.00
2023-03-23T07:58:25.708Z,714.00
2023-03-23T07:59:25.650Z,711.00
2023-03-23T08:03:25.620Z,676.00
2023-03-23T08:06:25.599Z,657.00
2023-03-23T08:07:25.602Z,655.00
2023-03-23T08:08:25.608Z,782.00
2023-03-23T08:09:25.664Z,752.00
2023-03-23T08:10:25.651Z,684.00
2023-03-23T08:11:25.678Z,704.00
2023-03-23T08:12:25.742Z,708.00
2023-03-23T08:13:25.801Z,722.00
2023-03-23T08:18:25.978Z,758.00
2023-03-23T08:19:25.993Z,727.00
2023-03-23T08:20:26.088Z,719.00
2023-03-23T08:21:26.151Z,723.00
2023-03-23T08:22:26.217Z,943.00
2023-03-23T08:23:26.268Z,747.00
2023-03-23T08:24:26.316Z,689.00
2023-03-23T08:25:26.357Z,757.00
2023-03-23T08:26:26.390Z,826.00
2023-03-23T08:27:26.414Z,753.00
2023-03-23T08:28:26.441Z,816.00
2023-03-23T08:29:26.455Z,801.00
2023-03-23T08:30:26.486Z,803.00
2023-03-23T08:31:26.689Z,797.00
2023-03-23T08:33:26.599Z,876.00
2023-03-23T08:37:26.620Z,949.00
2023-03-23T08:38:26.682Z,1038.00
2023-03-23T08:39:26.753Z,1082.00
2023-03-23T08:40:26.782Z,1049.00
2023-03-23T08:41:26.873Z,951.00
2023-03-23T08:42:26.955Z,952.00
2023-03-23T08:43:27.082Z,965.00
2023-03-23T08:44:27.054Z,1000.00
2023-03-23T08:45:27.105Z,1031.00
2023-03-23T08:46:27.183Z,1024.00
2023-03-23T08:47:27.270Z,980.00
2023-03-23T08:48:28.303Z,982.00
2023-03-23T08:49:28.254Z,966.00
2023-03-23T08:50:27.281Z,658.00
2023-03-23T08:51:27.747Z,658.00
2023-03-23T08:56:27.250Z,591.00
2023-03-23T08:59:27.237Z,532.00
2023-03-23T09:00:33.299Z,559.00
2023-03-23T09:01:28.245Z,540.00
2023-03-23T09:02:27.168Z,533.00
2023-03-23T09:03:27.210Z,561.00
2023-03-23T09:04:27.160Z,589.00
2023-03-23T09:05:27.169Z,614.00
2023-03-23T09:06:28.518Z,610.00
2023-03-23T09:07:27.183Z,567.00
2023-03-23T09:12:27.367Z,569.00
2023-03-23T09:13:27.476Z,767.00
2023-03-23T09:14:27.460Z,622.00
2023-03-23T09:15:33.203Z,718.00
2023-03-23T09:16:28.558Z,755.00
2023-03-23T09:17:27.533Z,887.00
2023-03-23T09:19:27.500Z,774.00
2023-03-23T09:20:27.570Z,680.00
2023-03-23T09:21:27.491Z,658.00
2023-03-23T09:22:27.499Z,663.00
2023-03-23T09:23:27.516Z,638.00
2023-03-23T09:24:27.511Z,622.00
2023-03-23T09:25:27.489Z,645.00
2023-03-23T09:26:27.463Z,616.00
2023-03-23T09:27:27.476Z,609.00
2023-03-23T09:28:27.440Z,602.00
2023-03-23T09:29:27.484Z,594.00
2023-03-23T09:30:27.552Z,654.00
2023-03-23T09:31:27.761Z,731.00
2023-03-23T09:35:27.834Z,830.00
2023-03-23T09:36:27.859Z,855.00
2023-03-23T09:37:27.870Z,768.00
2023-03-23T09:38:27.871Z,890.00
2023-03-23T09:39:27.880Z,899.00
2023-03-23T09:40:27.886Z,938.00
2023-03-23T09:41:28.248Z,867.00
2023-03-23T09:42:27.894Z,878.00
2023-03-23T09:43:27.890Z,771.00
2023-03-23T09:46:27.901Z,817.00
2023-03-23T09:47:27.975Z,802.00
2023-03-23T09:48:27.982Z,1093.00
2023-03-23T09:49:28.045Z,797.00
2023-03-23T09:50:28.092Z,876.00
2023-03-23T09:51:28.253Z,841.00
2023-03-23T09:52:28.397Z,954.00
2023-03-23T09:53:28.301Z,888.00
2023-03-23T09:54:28.335Z,837.00
2023-03-23T09:55:28.468Z,887.00
2023-03-23T09:56:28.452Z,965.00
2023-03-23T09:57:28.534Z,1034.00
2023-03-23T09:58:28.607Z,969.00
2023-03-23T09:59:28.631Z,1152.00
2023-03-23T10:00:28.757Z,987.00
2023-03-23T10:01:29.296Z,878.00
2023-03-23T10:02:28.798Z,887.00
2023-03-23T10:03:28.882Z,859.00
2023-03-23T10:04:28.909Z,863.00
2023-03-23T10:05:28.964Z,859.00
2023-03-23T10:06:29.050Z,853.00
2023-03-23T10:07:29.078Z,849.00
2023-03-23T10:08:29.172Z,854.00
2023-03-23T10:09:29.258Z,850.00
2023-03-23T10:10:29.304Z,856.00
2023-03-23T10:11:29.338Z,876.00
2023-03-23T10:12:29.346Z,861.00
2023-03-23T10:13:29.408Z,855.00
2023-03-23T10:14:29.487Z,872.00
2023-03-23T10:15:29.554Z,886.00
2023-03-23T10:16:29.673Z,970.00
2023-03-23T10:17:29.708Z,995.00
2023-03-23T10:18:29.641Z,1004.00
2023-03-23T10:19:29.731Z,1571.00
2023-03-23T10:20:29.758Z,1088.00
2023-03-23T10:21:30.302Z,1118.00
2023-03-23T10:23:29.878Z,1115.00
2023-03-23T10:24:29.968Z,1059.00
2023-03-23T10:26:29.996Z,975.00
2023-03-23T10:27:30.036Z,969.00
2023-03-23T10:28:30.048Z,900.00
2023-03-23T10:29:30.101Z,1120.00
2023-03-23T10:31:30.166Z,806.00
2023-03-23T10:32:30.149Z,811.00
2023-03-23T10:33:30.234Z,811.00
2023-03-23T10:34:30.267Z,803.00
2023-03-23T10:35:31.872Z,810.00
2023-03-23T10:36:30.370Z,822.00
2023-03-23T10:37:30.778Z,797.00
2023-03-23T10:38:30.441Z,862.00
2023-03-23T10:39:30.496Z,780.00
2023-03-23T10:40:30.524Z,773.00
2023-03-23T10:41:30.576Z,766.00
2023-03-23T10:42:30.644Z,777.00
2023-03-23T10:43:30.656Z,853.00
2023-03-23T10:44:30.694Z,849.00
2023-03-23T10:45:30.753Z,906.00
2023-03-23T10:46:32.394Z,1091.00
2023-03-23T10:48:30.794Z,873.00
2023-03-23T10:52:30.774Z,638.00
2023-03-23T10:54:30.743Z,633.00
2023-03-23T10:56:30.778Z,694.00
2023-03-23T11:00:30.678Z,659.00
2023-03-23T11:01:30.691Z,658.00
2023-03-23T11:04:30.667Z,660.00
2023-03-23T11:05:30.665Z,661.00
2023-03-23T11:06:30.740Z,662.00
2023-03-23T11:08:30.667Z,664.00
2023-03-23T11:13:30.581Z,704.00
2023-03-23T11:17:30.578Z,806.00
2023-03-23T11:20:30.525Z,670.00
2023-03-23T11:21:30.521Z,1160.00
2023-03-23T11:22:30.777Z,829.00
2023-03-23T11:25:30.577Z,639.00
2023-03-23T11:26:30.540Z,608.00
2023-03-23T11:27:30.609Z,713.00
2023-03-23T11:28:30.647Z,623.00
2023-03-23T11:29:30.721Z,673.00
2023-03-23T11:30:30.767Z,682.00
2023-03-23T11:31:30.803Z,747.00
2023-03-23T11:32:31.311Z,766.00
2023-03-23T11:34:31.024Z,670.00
2023-03-23T11:35:31.110Z,628.00
2023-03-23T11:36:31.141Z,629.00
2023-03-23T11:37:31.299Z,708.00
2023-03-23T11:41:31.482Z,657.00
2023-03-23T11:42:31.514Z,635.00
2023-03-23T11:43:31.570Z,561.00
2023-03-23T11:44:31.618Z,548.00
2023-03-23T11:45:31.669Z,557.00
2023-03-23T11:46:31.722Z,581.00
2023-03-23T11:47:31.794Z,580.00
2023-03-23T11:48:31.680Z,575.00
2023-03-23T11:49:33.551Z,562.00
2023-03-23T11:50:31.709Z,557.00
2023-03-23T11:51:31.735Z,555.00
2023-03-23T11:52:31.795Z,553.00
2023-03-23T11:53:31.810Z,552.00
2023-03-23T11:54:31.870Z,551.00
2023-03-23T11:55:31.937Z,551.00
2023-03-23T11:56:31.940Z,549.00
2023-03-23T11:57:31.934Z,548.00
2023-03-23T11:58:31.992Z,548.00
2023-03-23T11:59:32.013Z,546.00
2023-03-23T12:00:32.043Z,538.00
2023-03-23T12:01:32.061Z,536.00
2023-03-23T12:02:32.141Z,532.00
2023-03-23T12:03:32.151Z,532.00
2023-03-23T12:04:32.178Z,537.00
2023-03-23T12:05:32.279Z,536.00
2023-03-23T12:08:32.367Z,531.00
2023-03-23T12:09:32.384Z,537.00
2023-03-23T12:10:40.807Z,536.00
2023-03-23T12:11:33.447Z,530.00
2023-03-23T12:14:36.601Z,527.00
2023-03-23T12:15:33.438Z,524.00
2023-03-23T12:20:37.731Z,535.00
2023-03-23T12:21:33.362Z,537.00
2023-03-23T12:22:32.374Z,539.00
2023-03-23T12:24:32.380Z,562.00
2023-03-23T12:26:32.319Z,583.00
2023-03-23T12:27:32.346Z,594.00
2023-03-23T12:28:32.831Z,596.00
2023-03-23T12:31:32.305Z,626.00
2023-03-23T12:34:32.298Z,647.00
2023-03-23T12:35:32.272Z,652.00
2023-03-23T12:36:32.275Z,660.00
2023-03-23T12:37:32.265Z,666.00
2023-03-23T12:39:32.236Z,666.00
2023-03-23T12:40:32.243Z,667.00
2023-03-23T12:44:32.193Z,649.00
2023-03-23T12:45:32.201Z,644.00
2023-03-23T12:46:32.217Z,636.00
2023-03-23T12:53:32.143Z,614.00
2023-03-23T12:59:32.095Z,589.00
2023-03-23T13:03:42.196Z,580.00
2023-03-23T13:05:42.353Z,565.00
2023-03-23T13:08:42.154Z,558.00
2023-03-23T13:09:42.161Z,557.00
2023-03-23T13:11:42.105Z,556.00
2023-03-23T13:12:42.126Z,551.00
2023-03-23T13:18:42.118Z,556.00
2023-03-23T13:22:42.041Z,559.00
2023-03-23T13:26:42.018Z,558.00
2023-03-23T13:28:42.006Z,559.00
2023-03-23T13:29:41.988Z,560.00
2023-03-23T13:30:42.001Z,564.00
2023-03-23T13:33:42.014Z,567.00
2023-03-23T13:39:41.957Z,570.00
2023-03-23T13:40:42.206Z,577.00
2023-03-23T13:43:41.911Z,602.00
2023-03-23T13:44:41.897Z,606.00
2023-03-23T13:45:42.128Z,613.00
2023-03-23T13:48:41.980Z,696.00
2023-03-23T13:49:42.028Z,678.00
2023-03-23T13:50:42.243Z,656.00
2023-03-23T13:51:42.122Z,653.00
2023-03-23T13:52:42.139Z,653.00
2023-03-23T13:53:42.208Z,649.00
2023-03-23T13:54:42.220Z,649.00
2023-03-23T13:55:42.401Z,643.00
2023-03-23T13:56:42.257Z,638.00
2023-03-23T13:57:42.282Z,634.00
2023-03-23T13:58:42.282Z,631.00
2023-03-23T13:59:42.313Z,628.00
2023-03-23T14:00:42.344Z,627.00
2023-03-23T14:01:42.360Z,628.00
2023-03-23T14:02:42.430Z,626.00
2023-03-23T14:03:42.459Z,623.00
2023-03-23T14:04:42.464Z,623.00
2023-03-23T14:05:42.614Z,622.00
2023-03-23T14:06:42.560Z,623.00
2023-03-23T14:07:42.597Z,622.00
2023-03-23T14:08:42.670Z,620.00
2023-03-23T14:09:42.709Z,619.00
2023-03-23T14:10:42.747Z,618.00
2023-03-23T14:11:42.777Z,619.00
2023-03-23T14:12:42.839Z,619.00
2023-03-23T14:13:42.883Z,615.00
2023-03-23T14:14:42.947Z,609.00
2023-03-23T14:15:43.143Z,610.00
2023-03-23T14:16:42.999Z,609.00
2023-03-23T14:17:43.050Z,610.00
2023-03-23T14:18:43.094Z,609.00
2023-03-23T14:19:43.126Z,604.00
2023-03-23T14:20:43.128Z,589.00
2023-03-23T14:21:43.164Z,584.00
2023-03-23T14:22:43.202Z,584.00
2023-03-23T14:23:43.245Z,584.00
2023-03-23T14:24:43.305Z,584.00
2023-03-23T14:25:43.413Z,588.00
2023-03-23T14:26:43.362Z,590.00
2023-03-23T14:27:43.407Z,590.00
2023-03-23T14:28:43.444Z,589.00
2023-03-23T14:29:43.504Z,590.00
2023-03-23T14:30:43.536Z,590.00
2023-03-23T14:31:43.571Z,593.00
2023-03-23T14:32:43.635Z,592.00
2023-03-23T14:33:43.672Z,589.00
2023-03-23T14:34:43.749Z,586.00
2023-03-23T14:35:44.129Z,586.00
2023-03-23T14:36:43.865Z,585.00
2023-03-23T14:37:43.907Z,587.00
2023-03-23T14:38:43.996Z,585.00
2023-03-23T14:39:44.028Z,583.00
2023-03-23T14:40:45.389Z,580.00
2023-03-23T14:41:44.147Z,581.00
2023-03-23T14:42:44.273Z,580.00
2023-03-23T14:43:44.608Z,573.00
2023-03-23T14:45:44.673Z,565.00
2023-03-23T14:46:44.464Z,562.00
2023-03-23T14:47:44.519Z,558.00
2023-03-23T14:48:44.563Z,557.00
2023-03-23T14:49:44.643Z,556.00
2023-03-23T14:50:44.679Z,553.00
2023-03-23T14:51:44.769Z,553.00
2023-03-23T14:52:44.797Z,553.00
2023-03-23T14:53:44.866Z,551.00
2023-03-23T14:54:44.922Z,549.00
2023-03-23T14:55:45.018Z,548.00
2023-03-23T14:56:45.050Z,545.00
2023-03-23T14:57:45.076Z,542.00
2023-03-23T14:58:45.141Z,543.00
2023-03-23T14:59:45.214Z,542.00
2023-03-23T15:00:45.283Z,541.00
2023-03-23T15:01:45.330Z,541.00
2023-03-23T15:02:45.407Z,537.00
2023-03-23T15:03:45.470Z,535.00
2023-03-23T15:04:45.537Z,536.00
2023-03-23T15:05:45.571Z,537.00
2023-03-23T15:06:45.609Z,534.00
2023-03-23T15:07:45.703Z,531.00
2023-03-23T15:08:45.736Z,532.00
2023-03-23T15:09:45.801Z,532.00
2023-03-23T15:10:45.844Z,531.00
2023-03-23T15:11:45.919Z,532.00
2023-03-23T15:12:45.957Z,532.00
2023-03-23T15:13:46.048Z,533.00
2023-03-23T15:15:46.157Z,528.00
2023-03-23T15:16:46.185Z,527.00
2023-03-23T15:17:46.237Z,524.00
2023-03-23T15:18:46.383Z,520.00
2023-03-23T15:19:46.394Z,516.00
2023-03-23T15:20:46.421Z,515.00
2023-03-23T15:21:46.507Z,516.00
2023-03-23T15:22:46.586Z,516.00
2023-03-23T15:23:46.624Z,516.00
2023-03-23T15:24:46.707Z,513.00
2023-03-23T15:25:46.728Z,515.00
2023-03-23T15:26:46.827Z,514.00
2023-03-23T15:27:46.893Z,514.00
2023-03-23T15:28:46.923Z,516.00
2023-03-23T15:29:47.972Z,516.00
2023-03-23T15:32:46.929Z,516.00
2023-03-23T15:33:47.905Z,515.00
2023-03-23T15:35:46.875Z,512.00
2023-03-23T15:38:46.883Z,509.00
2023-03-23T15:41:46.848Z,502.00
2023-03-23T15:42:46.886Z,500.00
2023-03-23T15:43:46.964Z,497.00
2023-03-23T15:44:47.077Z,494.00
2023-03-23T15:45:47.077Z,493.00
2023-03-23T15:46:47.137Z,494.00
2023-03-23T15:47:47.200Z,496.00
2023-03-23T15:48:47.257Z,496.00
2023-03-23T15:49:47.356Z,498.00
2023-03-23T15:50:47.356Z,499.00
2023-03-23T15:51:47.420Z,500.00
2023-03-23T15:52:47.503Z,498.00
2023-03-23T15:53:47.590Z,496.00
2023-03-23T15:54:47.612Z,492.00
2023-03-23T15:55:47.667Z,490.00
2023-03-23T15:56:47.757Z,491.00
2023-03-23T15:58:57.895Z,505.00
2023-03-23T15:59:57.872Z,503.00
2023-03-23T16:00:57.907Z,504.00
2023-03-23T16:06:57.813Z,501.00
2023-03-23T16:07:57.812Z,500.00
2023-03-23T16:09:57.816Z,499.00
2023-03-23T16:11:57.782Z,498.00
2023-03-23T16:16:57.779Z,486.00
2023-03-23T16:17:57.781Z,486.00
2023-03-23T16:18:57.752Z,486.00
2023-03-23T16:19:57.746Z,485.00
2023-03-23T16:22:57.723Z,480.00
2023-03-23T16:23:57.719Z,478.00
2023-03-23T16:27:57.687Z,477.00
2023-03-23T16:29:09.878Z,478.00
2023-03-23T16:30:03.680Z,476.00
2023-03-23T16:30:58.707Z,477.00
2023-03-23T16:32:57.988Z,477.00
2023-03-23T16:33:57.633Z,475.00
2023-03-23T16:34:57.672Z,470.00
2023-03-23T16:35:57.796Z,470.00
2023-03-23T16:39:57.676Z,466.00
2023-03-23T16:42:57.574Z,467.00
2023-03-23T16:43:57.582Z,469.00
2023-03-23T16:44:57.592Z,470.00
2023-03-23T16:51:57.530Z,465.00
2023-03-23T16:54:57.532Z,463.00
2023-03-23T16:58:57.493Z,461.00
2023-03-23T16:59:57.494Z,460.00
2023-03-23T17:00:57.462Z,460.00
2023-03-23T17:04:57.470Z,466.00
2023-03-23T17:09:57.411Z,465.00
2023-03-23T17:10:57.396Z,465.00
2023-03-23T17:19:57.402Z,461.00
2023-03-23T17:29:57.318Z,454.00
2023-03-23T17:30:57.324Z,454.00
2023-03-23T17:41:57.203Z,458.00
2023-03-23T17:47:57.188Z,454.00
2023-03-23T17:48:57.174Z,457.00
2023-03-23T17:49:57.208Z,459.00
2023-03-23T17:55:57.126Z,458.00
2023-03-23T18:01:57.141Z,455.00
2023-03-23T18:02:57.140Z,455.00
2023-03-23T18:03:57.142Z,456.00
2023-03-23T18:04:57.156Z,456.00
2023-03-23T18:10:57.167Z,459.00
2023-03-23T18:11:57.178Z,460.00
2023-03-23T18:22:57.306Z,467.00
2023-03-23T18:23:59.857Z,465.00
2023-03-23T18:24:57.319Z,467.00
2023-03-23T18:25:57.308Z,465.00
2023-03-23T18:27:57.272Z,467.00
2023-03-23T18:28:58.268Z,471.00
2023-03-23T18:30:57.266Z,469.00
2023-03-23T18:34:57.239Z,470.00
2023-03-23T18:40:57.217Z,472.00
2023-03-23T18:41:57.186Z,471.00
2023-03-23T18:43:57.787Z,470.00
2023-03-23T18:51:57.126Z,467.00
2023-03-23T19:03:57.069Z,472.00
2023-03-23T19:04:57.090Z,476.00
2023-03-23T19:05:57.043Z,479.00
2023-03-23T19:06:57.046Z,479.00
2023-03-23T19:07:57.106Z,481.00
2023-03-23T19:14:57.146Z,487.00
2023-03-23T19:15:57.163Z,484.00
2023-03-23T19:17:57.096Z,483.00
2023-03-23T19:18:57.108Z,485.00
2023-03-23T19:19:58.058Z,485.00
2023-03-23T19:24:57.147Z,486.00
2023-03-23T19:25:57.163Z,486.00
2023-03-23T19:26:57.135Z,488.00
2023-03-23T19:28:49.965Z,488.00
2023-03-23T19:30:57.210Z,488.00
2023-03-23T19:31:57.150Z,488.00
2023-03-23T19:33:57.136Z,487.00
2023-03-23T19:34:57.149Z,489.00
2023-03-23T19:37:04.779Z,488.00
2023-03-23T19:37:58.099Z,488.00
2023-03-23T19:38:57.089Z,489.00
2023-03-23T19:40:57.218Z,489.00
2023-03-23T19:45:57.034Z,491.00
2023-03-23T19:46:57.640Z,490.00
2023-03-23T19:47:57.121Z,489.00
2023-03-23T19:48:57.034Z,491.00
2023-03-23T19:49:57.043Z,492.00
2023-03-23T19:52:08.077Z,495.00
2023-03-23T19:53:00.178Z,494.00
2023-03-23T19:54:56.989Z,492.00
2023-03-23T19:55:57.383Z,493.00
2023-03-23T19:56:57.014Z,491.00
2023-03-23T20:00:57.070Z,485.00
2023-03-23T20:05:56.957Z,484.00
2023-03-23T20:06:57.179Z,485.00
2023-03-23T20:10:56.876Z,480.00
2023-03-23T20:11:56.891Z,481.00
2023-03-23T20:17:57.986Z,487.00
2023-03-23T20:23:56.818Z,488.00
2023-03-23T20:25:57.787Z,487.00
2023-03-23T20:31:56.725Z,490.00
2023-03-23T20:32:56.771Z,490.00
2023-03-23T20:33:59.832Z,489.00
2023-03-23T20:34:56.754Z,488.00
2023-03-23T20:35:56.824Z,486.00
2023-03-23T20:36:56.744Z,485.00
2023-03-23T20:38:56.690Z,483.00
2023-03-23T20:39:56.700Z,485.00
2023-03-23T20:40:56.711Z,484.00
2023-03-23T20:42:56.704Z,490.00
2023-03-23T20:49:56.651Z,492.00
2023-03-23T20:51:56.690Z,491.00
2023-03-23T20:53:56.607Z,491.00
2023-03-23T20:54:56.625Z,491.00
2023-03-23T21:01:56.614Z,490.00
2023-03-23T21:04:56.545Z,490.00
2023-03-23T21:05:56.563Z,488.00
2023-03-23T21:09:56.532Z,487.00
2023-03-23T21:10:56.518Z,488.00
2023-03-23T21:18:56.515Z,481.00
2023-03-23T21:19:56.509Z,480.00
2023-03-23T21:20:56.537Z,479.00
2023-03-23T21:21:57.292Z,478.00
2023-03-23T21:22:56.563Z,476.00
2023-03-23T21:23:56.596Z,477.00
2023-03-23T21:24:56.630Z,478.00
2023-03-23T21:25:56.640Z,478.00
2023-03-23T21:27:56.677Z,477.00
2023-03-23T21:35:56.890Z,479.00
2023-03-23T21:36:56.863Z,478.00
2023-03-23T21:37:56.890Z,477.00
2023-03-23T21:38:56.908Z,476.00
2023-03-23T21:39:57.104Z,477.00
2023-03-23T21:43:56.998Z,481.00
2023-03-23T21:44:57.003Z,482.00
2023-03-23T21:45:56.999Z,483.00
2023-03-23T21:46:57.042Z,484.00
2023-03-23T21:47:57.192Z,482.00
2023-03-23T21:51:57.105Z,482.00
2023-03-23T21:52:57.121Z,484.00
2023-03-23T21:53:57.136Z,484.00
2023-03-23T21:54:57.134Z,486.00
2023-03-23T21:55:57.176Z,485.00
2023-03-23T22:02:57.371Z,486.00
2023-03-23T22:03:57.312Z,486.00
2023-03-23T22:04:57.369Z,485.00
2023-03-23T22:05:57.394Z,484.00
2023-03-23T22:06:57.399Z,483.00
2023-03-23T22:07:57.414Z,486.00
2023-03-23T22:08:57.455Z,485.00
2023-03-23T22:09:57.487Z,485.00
2023-03-23T22:11:00.704Z,485.00
2023-03-23T22:11:57.523Z,485.00